Time;durP1;ratioP1;P1;durP2;ratioP2;P2;SDS_P1;SDS_P2;PMS_P1;PMS_P2;Temp;Humidity;BMP_temperature;BMP_pressure;BME280_temperature;BME280_humidity;BME280_pressure;Samples;Min_cycle;Max_cycle;Signal;HPM_P1;HPM_P2
2024/02/01 00:02:08;;;;;;;10.50;6.18;;;;;;;;;;6287493;28;20126;-74
2024/02/01 00:05:11;;;;;;;7.95;7.15;;;;;;;;;;6290910;28;20122;-74
2024/02/01 00:08:13;;;;;;;10.80;6.22;;;;;;;;;;6310349;28;20089;-74
2024/02/01 00:11:15;;;;;;;10.65;8.48;;;;;;;;;;6292094;28;20071;-74
2024/02/01 00:14:17;;;;;;;15.07;9.73;;;;;;;;;;6268914;28;20152;-74
2024/02/01 00:17:19;;;;;;;14.80;7.93;;;;;;;;;;6300416;28;20149;-74
2024/02/01 00:20:21;;;;;;;15.40;9.57;;;;;;;;;;6306649;28;20048;-74
2024/02/01 00:23:24;;;;;;;10.43;7.35;;;;;;;;;;6300794;28;20043;-74
2024/02/01 00:26:26;;;;;;;11.60;7.03;;;;;;;;;;6285947;28;20052;-74
2024/02/01 00:29:29;;;;;;;12.80;8.13;;;;;;;;;;6295252;28;20596;-74
2024/02/01 00:32:33;;;;;;;11.15;6.88;;;;;;;;;;6287443;28;20059;-74
2024/02/01 00:35:36;;;;;;;12.20;7.28;;;;;;;;;;6285527;28;20055;-74
2024/02/01 00:38:38;;;;;;;7.35;4.65;;;;;;;;;;6280272;28;20063;-74
2024/02/01 00:41:40;;;;;;;10.05;6.40;;;;;;;;;;6287172;28;20183;-74
2024/02/01 00:44:42;;;;;;;10.35;7.97;;;;;;;;;;6301556;28;20078;-74
2024/02/01 00:47:47;;;;;;;8.45;6.47;;;;;;;;;;6252566;28;20052;-74
2024/02/01 00:50:51;;;;;;;9.00;6.25;;;;;;;;;;6265393;28;20111;-74
2024/02/01 00:53:53;;;;;;;9.73;8.85;;;;;;;;;;6304936;28;20425;-74
2024/02/01 00:56:56;;;;;;;12.65;6.82;;;;;;;;;;6296536;28;20049;-77
2024/02/01 00:59:58;;;;;;;10.40;6.57;;;;;;;;;;6284537;28;20047;-74
2024/02/01 01:03:00;;;;;;;10.45;6.22;;;;;;;;;;6250459;28;20117;-73
2024/02/01 01:06:03;;;;;;;8.60;5.00;;;;;;;;;;6267601;28;20044;-74
2024/02/01 01:09:05;;;;;;;15.35;8.45;;;;;;;;;;6299350;28;20055;-74
2024/02/01 01:12:07;;;;;;;20.13;9.10;;;;;;;;;;6297593;28;20217;-74
2024/02/01 01:15:10;;;;;;;10.25;9.25;;;;;;;;;;6263437;28;20114;-74
2024/02/01 01:18:12;;;;;;;12.13;6.28;;;;;;;;;;6304873;28;20036;-75
2024/02/01 01:21:14;;;;;;;10.45;5.72;;;;;;;;;;6304800;28;20051;-74
2024/02/01 01:24:17;;;;;;;10.98;7.07;;;;;;;;;;6281558;28;20055;-74
2024/02/01 01:27:22;;;;;;;19.92;5.13;;;;;;;;;;6259697;28;20048;-74
2024/02/01 01:30:24;;;;;;;12.73;7.10;;;;;;;;;;6246935;28;20153;-74
2024/02/01 01:33:26;;;;;;;12.40;5.25;;;;;;;;;;6268978;28;20127;-74
2024/02/01 01:36:29;;;;;;;7.63;5.95;;;;;;;;;;6281610;28;20071;-74
2024/02/01 01:39:31;;;;;;;8.85;6.30;;;;;;;;;;6284781;28;20044;-74
2024/02/01 01:42:33;;;;;;;11.75;5.45;;;;;;;;;;6263444;28;20051;-74
2024/02/01 01:45:35;;;;;;;9.25;6.88;;;;;;;;;;6288335;28;20105;-74
2024/02/01 01:48:38;;;;;;;10.30;6.50;;;;;;;;;;6284275;28;21008;-74
2024/02/01 01:51:41;;;;;;;11.73;7.70;;;;;;;;;;6293781;28;20052;-74
2024/02/01 01:54:44;;;;;;;8.05;5.40;;;;;;;;;;6303305;28;20884;-74
2024/02/01 01:57:48;;;;;;;10.13;6.03;;;;;;;;;;6286343;28;20044;-74
2024/02/01 02:00:50;;;;;;;11.50;6.35;;;;;;;;;;6299668;28;20441;-75
2024/02/01 02:03:55;;;;;;;11.50;7.07;;;;;;;;;;6284823;28;20639;-74
2024/02/01 02:06:57;;;;;;;7.72;5.65;;;;;;;;;;6265952;28;20441;-74
2024/02/01 02:10:00;;;;;;;6.03;5.05;;;;;;;;;;6281930;28;20048;-74
2024/02/01 02:13:03;;;;;;;7.75;5.05;;;;;;;;;;6285212;28;20529;-75
2024/02/01 02:16:05;;;;;;;12.35;7.03;;;;;;;;;;6285085;28;20079;-75
2024/02/01 02:19:09;;;;;;;9.82;8.57;;;;;;;;;;6261282;28;20181;-74
2024/02/01 02:22:12;;;;;;;9.50;7.43;;;;;;;;;;6300999;28;20059;-74
2024/02/01 02:25:15;;;;;;;7.80;5.55;;;;;;;;;;6298293;28;20113;-74
2024/02/01 02:28:17;;;;;;;15.52;6.95;;;;;;;;;;6263864;28;20076;-74
2024/02/01 02:31:19;;;;;;;10.50;7.20;;;;;;;;;;6281791;28;20104;-74
2024/02/01 02:34:21;;;;;;;13.60;7.20;;;;;;;;;;6261355;28;20044;-74
2024/02/01 02:37:24;;;;;;;9.95;5.85;;;;;;;;;;6269032;28;20040;-74
2024/02/01 02:40:27;;;;;;;10.82;6.57;;;;;;;;;;6269566;28;20059;-74
2024/02/01 02:43:29;;;;;;;11.65;7.65;;;;;;;;;;6280497;28;20040;-74
2024/02/01 02:46:31;;;;;;;13.52;10.52;;;;;;;;;;6300375;28;20434;-74
2024/02/01 02:49:33;;;;;;;10.48;9.18;;;;;;;;;;6270791;28;20044;-74
2024/02/01 02:52:37;;;;;;;7.70;4.35;;;;;;;;;;6274454;28;20048;-74
2024/02/01 02:55:39;;;;;;;14.57;7.60;;;;;;;;;;6290145;28;20119;-73
2024/02/01 02:58:41;;;;;;;31.98;14.38;;;;;;;;;;6288264;28;20064;-75
2024/02/01 03:01:44;;;;;;;9.88;8.10;;;;;;;;;;6299044;28;20044;-74
2024/02/01 03:04:46;;;;;;;9.15;6.32;;;;;;;;;;6254353;28;20484;-74
2024/02/01 03:07:49;;;;;;;19.08;14.07;;;;;;;;;;6300898;28;20861;-74
2024/02/01 03:10:51;;;;;;;15.05;9.00;;;;;;;;;;6281695;28;20131;-74
2024/02/01 03:13:53;;;;;;;16.48;11.50;;;;;;;;;;6282606;28;20079;-74
2024/02/01 03:16:55;;;;;;;8.85;5.75;;;;;;;;;;6273538;28;20693;-74
2024/02/01 03:19:57;;;;;;;13.95;6.93;;;;;;;;;;6290350;28;20071;-74
2024/02/01 03:23:00;;;;;;;12.95;11.38;;;;;;;;;;6282154;28;20532;-74
2024/02/01 03:26:02;;;;;;;9.80;5.32;;;;;;;;;;6288508;28;20048;-73
2024/02/01 03:29:05;;;;;;;6.88;5.88;;;;;;;;;;6283220;28;20153;-73
2024/02/01 03:32:08;;;;;;;11.18;6.93;;;;;;;;;;6283035;28;20049;-74
2024/02/01 03:35:10;;;;;;;13.52;10.52;;;;;;;;;;6305950;28;20040;-73
2024/02/01 03:38:15;;;;;;;9.07;6.32;;;;;;;;;;6303589;28;20036;-73
2024/02/01 03:41:18;;;;;;;13.98;8.35;;;;;;;;;;6282859;28;20177;-73
2024/02/01 03:44:21;;;;;;;12.13;7.57;;;;;;;;;;6279819;28;20044;-74
2024/02/01 03:47:23;;;;;;;10.02;6.45;;;;;;;;;;6269292;28;20059;-74
2024/02/01 03:50:25;;;;;;;10.30;7.43;;;;;;;;;;6295122;28;20787;-74
2024/02/01 03:53:29;;;;;;;8.10;6.50;;;;;;;;;;6298134;28;20104;-73
2024/02/01 03:56:32;;;;;;;11.02;6.00;;;;;;;;;;6302254;28;20863;-74
2024/02/01 03:59:41;;;;;;;13.98;6.20;;;;;;;;;;6239428;28;20209;-73
2024/02/01 04:02:45;;;;;;;16.17;8.18;;;;;;;;;;6300716;28;20612;-73
2024/02/01 04:05:48;;;;;;;10.55;7.07;;;;;;;;;;6306132;28;20075;-73
2024/02/01 04:08:51;;;;;;;12.32;5.85;;;;;;;;;;6270346;28;20051;-73
2024/02/01 04:11:53;;;;;;;9.52;6.95;;;;;;;;;;6299844;28;20048;-74
2024/02/01 04:14:55;;;;;;;9.60;7.50;;;;;;;;;;6287442;28;20043;-75
2024/02/01 04:17:57;;;;;;;16.60;7.55;;;;;;;;;;6263800;28;20536;-74
2024/02/01 04:21:00;;;;;;;14.02;10.45;;;;;;;;;;6271407;28;20624;-74
2024/02/01 04:24:03;;;;;;;13.77;9.57;;;;;;;;;;6306690;28;20089;-74
2024/02/01 04:27:06;;;;;;;10.82;7.47;;;;;;;;;;6301251;28;20048;-74
2024/02/01 04:30:08;;;;;;;10.23;8.00;;;;;;;;;;6286054;28;20112;-74
2024/02/01 04:33:11;;;;;;;15.63;10.95;;;;;;;;;;6283690;28;20055;-75
2024/02/01 04:36:14;;;;;;;22.38;15.15;;;;;;;;;;6306835;28;20101;-74
2024/02/01 04:39:16;;;;;;;14.57;8.35;;;;;;;;;;6270299;28;20564;-75
2024/02/01 04:42:23;;;;;;;14.07;8.20;;;;;;;;;;6287050;28;20035;-74
2024/02/01 04:45:25;;;;;;;16.25;9.07;;;;;;;;;;6286537;28;20049;-74
2024/02/01 04:48:27;;;;;;;29.95;15.35;;;;;;;;;;6279245;28;20079;-74
2024/02/01 04:51:30;;;;;;;16.80;8.60;;;;;;;;;;6302049;28;20477;-74
2024/02/01 04:54:34;;;;;;;20.05;8.05;;;;;;;;;;6298777;28;20527;-74
2024/02/01 04:57:38;;;;;;;23.52;12.40;;;;;;;;;;6272580;28;20048;-73
2024/02/01 05:00:41;;;;;;;14.95;8.52;;;;;;;;;;6273761;28;20048;-74
2024/02/01 05:03:44;;;;;;;11.63;8.38;;;;;;;;;;6269200;28;20048;-74
2024/02/01 05:06:47;;;;;;;13.77;9.98;;;;;;;;;;6290240;28;20460;-74
2024/02/01 05:09:49;;;;;;;13.98;6.85;;;;;;;;;;6272751;28;20493;-74
2024/02/01 05:12:54;;;;;;;17.48;5.90;;;;;;;;;;6294193;28;20081;-73
2024/02/01 05:15:58;;;;;;;8.43;6.80;;;;;;;;;;6255830;28;20147;-74
2024/02/01 05:19:01;;;;;;;12.70;7.18;;;;;;;;;;6268865;28;20057;-73
2024/02/01 05:22:07;;;;;;;7.30;5.18;;;;;;;;;;6281572;28;20131;-75
2024/02/01 05:25:15;;;;;;;6.47;4.93;;;;;;;;;;6281097;28;20036;-74
2024/02/01 05:28:18;;;;;;;11.55;5.55;;;;;;;;;;6305744;28;20130;-74
2024/02/01 05:31:21;;;;;;;11.55;10.45;;;;;;;;;;6259445;28;20723;-74
2024/02/01 05:34:23;;;;;;;6.07;4.97;;;;;;;;;;6288191;28;20062;-76
2024/02/01 05:37:26;;;;;;;13.90;8.50;;;;;;;;;;6307854;28;20137;-76
2024/02/01 05:40:30;;;;;;;14.23;10.13;;;;;;;;;;6295395;28;20061;-77
2024/02/01 05:43:32;;;;;;;16.60;10.25;;;;;;;;;;6289636;28;20060;-77
2024/02/01 05:46:36;;;;;;;13.73;7.78;;;;;;;;;;6318115;28;20036;-76
2024/02/01 05:49:38;;;;;;;18.85;12.93;;;;;;;;;;6277680;28;20169;-75
2024/02/01 05:52:41;;;;;;;26.20;13.10;;;;;;;;;;6280225;28;20048;-75
2024/02/01 05:55:43;;;;;;;17.83;12.25;;;;;;;;;;6280219;28;20936;-75
2024/02/01 05:58:45;;;;;;;23.40;15.40;;;;;;;;;;6278511;28;20044;-76
2024/02/01 06:01:47;;;;;;;21.38;13.35;;;;;;;;;;6302726;28;20059;-77
2024/02/01 06:04:50;;;;;;;28.05;14.32;;;;;;;;;;6284759;28;20036;-76
2024/02/01 06:07:52;;;;;;;15.45;9.68;;;;;;;;;;6281808;28;20043;-75
2024/02/01 06:10:55;;;;;;;13.20;7.65;;;;;;;;;;6286271;28;20225;-75
2024/02/01 06:13:57;;;;;;;10.80;6.72;;;;;;;;;;6296248;28;20052;-75
2024/02/01 06:17:00;;;;;;;16.75;9.85;;;;;;;;;;6282858;28;20163;-76
2024/02/01 06:20:03;;;;;;;17.15;15.65;;;;;;;;;;6279179;28;20699;-74
2024/02/01 06:23:06;;;;;;;12.93;9.45;;;;;;;;;;6285439;28;20105;-76
2024/02/01 06:26:08;;;;;;;28.58;14.20;;;;;;;;;;6274469;28;20044;-75
2024/02/01 06:29:11;;;;;;;23.63;14.90;;;;;;;;;;6283505;28;20132;-76
2024/02/01 06:32:19;;;;;;;28.40;15.38;;;;;;;;;;6269826;28;20113;-73
2024/02/01 06:35:23;;;;;;;31.95;18.27;;;;;;;;;;6267811;28;20082;-75
2024/02/01 06:38:45;;;;;;;16.08;13.13;;;;;;;;;;6265017;28;20804;-74
2024/02/01 06:41:49;;;;;;;13.23;10.15;;;;;;;;;;6287550;28;20051;-75
2024/02/01 06:45:09;;;;;;;15.43;8.40;;;;;;;;;;6305040;28;20042;-73
2024/02/01 06:48:12;;;;;;;18.05;9.57;;;;;;;;;;6288912;28;20086;-75
2024/02/01 06:51:21;;;;;;;14.23;9.38;;;;;;;;;;6284521;28;20063;-75
2024/02/01 07:01:03;;;;;;;17.75;12.75;;;;;;;;;;6291424;28;20060;-74
2024/02/01 07:04:21;;;;;;;16.95;10.93;;;;;;;;;;6324362;28;21002;-76
2024/02/01 07:07:26;;;;;;;;;;;;;;;;;;6295931;28;20146;-74
2024/02/01 07:10:43;;;;;;;21.30;8.98;;;;;;;;;;6273473;28;19974;-74
2024/02/01 07:17:06;;;;;;;22.13;16.33;;;;;;;;;;6309361;28;20445;-76
2024/02/01 07:20:14;;;;;;;24.08;14.02;;;;;;;;;;6286862;28;20047;-73
2024/02/01 07:26:43;;;;;;;19.88;12.77;;;;;;;;;;6284220;28;20200;-75
2024/02/01 07:59:58;;;;;;;15.57;9.77;;;;;;;;;;6287576;28;20043;-75
2024/02/01 08:03:11;;;;;;;15.35;9.95;;;;;;;;;;6283647;28;20070;-74
2024/02/01 08:09:35;;;;;;;16.75;8.90;;;;;;;;;;6283353;28;20044;-75
2024/02/01 08:12:37;;;;;;;18.20;10.60;;;;;;;;;;6264734;28;20052;-75
2024/02/01 08:15:45;;;;;;;17.10;10.15;;;;;;;;;;6264799;28;20047;-75
2024/02/01 08:18:48;;;;;;;19.67;10.52;;;;;;;;;;6267596;28;20105;-75
2024/02/01 08:21:50;;;;;;;18.05;11.23;;;;;;;;;;6264823;28;20071;-75
2024/02/01 08:24:54;;;;;;;22.63;11.15;;;;;;;;;;6276317;28;20040;-76
2024/02/01 08:28:01;;;;;;;18.50;10.25;;;;;;;;;;6305317;28;20274;-74
2024/02/01 08:31:08;;;;;;;9.35;7.53;;;;;;;;;;6264144;28;20108;-74
2024/02/01 08:34:14;;;;;;;15.73;10.45;;;;;;;;;;6298496;28;20082;-73
2024/02/01 08:37:17;;;;;;;18.85;11.48;;;;;;;;;;6283253;28;20051;-74
2024/02/01 08:40:20;;;;;;;17.67;11.27;;;;;;;;;;6301115;28;20524;-74
2024/02/01 08:43:23;;;;;;;17.88;10.90;;;;;;;;;;6283930;28;20105;-74
2024/02/01 08:46:25;;;;;;;16.85;9.40;;;;;;;;;;6298266;28;20539;-74
2024/02/01 08:49:36;;;;;;;20.35;11.82;;;;;;;;;;6280165;28;20930;-73
2024/02/01 08:52:45;;;;;;;19.95;11.57;;;;;;;;;;6254944;28;20118;-73
2024/02/01 08:55:51;;;;;;;16.75;8.48;;;;;;;;;;6283356;28;20059;-73
2024/02/01 08:58:55;;;;;;;19.25;11.15;;;;;;;;;;6268684;28;20604;-73
2024/02/01 09:01:57;;;;;;;19.70;11.55;;;;;;;;;;6279463;28;20140;-74
2024/02/01 09:04:59;;;;;;;15.82;9.77;;;;;;;;;;6289679;28;20043;-75
2024/02/01 09:08:07;;;;;;;19.77;10.38;;;;;;;;;;6303924;28;20052;-74
2024/02/01 09:11:12;;;;;;;20.75;12.93;;;;;;;;;;6279469;28;20750;-74
2024/02/01 09:14:14;;;;;;;20.08;9.70;;;;;;;;;;6287008;28;20044;-73
2024/02/01 09:17:16;;;;;;;19.88;11.75;;;;;;;;;;6268309;28;20105;-73
2024/02/01 09:20:19;;;;;;;9.35;6.47;;;;;;;;;;6305933;28;20047;-72
2024/02/01 09:23:22;;;;;;;19.45;12.15;;;;;;;;;;6298786;28;20048;-73
2024/02/01 09:26:24;;;;;;;21.08;11.95;;;;;;;;;;6276018;28;20044;-73
2024/02/01 09:29:26;;;;;;;20.55;12.65;;;;;;;;;;6280930;28;20037;-74
2024/02/01 09:32:30;;;;;;;15.75;9.95;;;;;;;;;;6277841;28;20099;-74
2024/02/01 09:35:36;;;;;;;21.23;11.68;;;;;;;;;;6297550;28;20078;-75
2024/02/01 09:38:38;;;;;;;12.85;7.65;;;;;;;;;;6271549;28;20048;-75
2024/02/01 09:41:40;;;;;;;17.70;11.30;;;;;;;;;;6289741;28;20055;-75
2024/02/01 09:44:43;;;;;;;23.23;12.00;;;;;;;;;;6285351;28;20233;-74
2024/02/01 09:47:48;;;;;;;18.90;9.60;;;;;;;;;;6283450;28;20052;-73
2024/02/01 09:50:52;;;;;;;14.77;13.23;;;;;;;;;;6267544;28;20424;-74
2024/02/01 09:53:55;;;;;;;41.42;10.57;;;;;;;;;;6265406;28;20441;-75
2024/02/01 09:56:57;;;;;;;17.00;10.23;;;;;;;;;;6280288;28;20114;-74
2024/02/01 10:00:00;;;;;;;16.42;10.25;;;;;;;;;;6303968;28;20173;-76
2024/02/01 10:03:07;;;;;;;16.55;12.50;;;;;;;;;;6286378;28;20240;-74
2024/02/01 10:06:10;;;;;;;11.02;8.55;;;;;;;;;;6279965;28;20048;-74
2024/02/01 10:09:22;;;;;;;13.93;9.15;;;;;;;;;;6287048;28;20052;-73
2024/02/01 10:12:26;;;;;;;17.25;9.70;;;;;;;;;;6309887;28;20111;-73
2024/02/01 10:15:30;;;;;;;8.05;5.95;;;;;;;;;;6314246;28;20631;-74
2024/02/01 10:18:32;;;;;;;13.27;11.93;;;;;;;;;;6284034;28;20099;-75
2024/02/01 10:21:35;;;;;;;14.60;8.25;;;;;;;;;;6289898;28;20500;-74
2024/02/01 10:24:56;;;;;;;15.63;8.68;;;;;;;;;;6266389;28;20447;-74
2024/02/01 10:28:04;;;;;;;17.05;10.13;;;;;;;;;;6275821;28;20040;-73
2024/02/01 10:31:08;;;;;;;15.57;9.10;;;;;;;;;;6263213;28;20040;-74
2024/02/01 10:34:13;;;;;;;18.05;12.30;;;;;;;;;;6295381;28;20047;-73
2024/02/01 10:37:19;;;;;;;11.32;8.43;;;;;;;;;;6282813;28;20048;-73
2024/02/01 10:40:28;;;;;;;18.27;9.57;;;;;;;;;;6283801;28;20143;-75
2024/02/01 10:43:31;;;;;;;17.40;11.13;;;;;;;;;;6272402;28;20054;-74
2024/02/01 10:46:44;;;;;;;14.80;8.25;;;;;;;;;;6272375;28;20048;-74
2024/02/01 10:49:52;;;;;;;16.70;10.07;;;;;;;;;;6275548;28;20064;-73
2024/02/01 10:52:56;;;;;;;16.00;9.82;;;;;;;;;;6275655;28;20130;-74
2024/02/01 10:55:58;;;;;;;15.20;8.82;;;;;;;;;;6268142;28;21667;-74
2024/02/01 10:59:07;;;;;;;16.52;8.85;;;;;;;;;;6289477;28;20163;-73
2024/02/01 11:02:09;;;;;;;20.40;9.80;;;;;;;;;;6279282;28;20071;-73
2024/02/01 11:05:12;;;;;;;18.13;10.75;;;;;;;;;;6260350;28;20040;-74
2024/02/01 11:08:15;;;;;;;13.15;9.00;;;;;;;;;;6268623;28;20052;-73
2024/02/01 11:11:44;;;;;;;13.50;8.77;;;;;;;;;;6290805;28;20048;-73
2024/02/01 11:14:48;;;;;;;13.98;7.93;;;;;;;;;;6282547;28;20059;-73
2024/02/01 11:17:51;;;;;;;11.75;6.80;;;;;;;;;;6268192;28;20051;-73
2024/02/01 11:20:57;;;;;;;11.43;9.70;;;;;;;;;;6307169;28;20711;-73
2024/02/01 11:24:06;;;;;;;12.73;10.07;;;;;;;;;;6275105;28;20133;-73
2024/02/01 11:27:12;;;;;;;20.52;12.38;;;;;;;;;;6284759;28;20680;-73
2024/02/01 11:30:24;;;;;;;16.40;10.10;;;;;;;;;;6304662;28;20040;-72
2024/02/01 11:33:27;;;;;;;19.40;12.00;;;;;;;;;;6286115;28;20036;-73
2024/02/01 11:36:30;;;;;;;13.65;7.88;;;;;;;;;;6285172;28;20052;-73
2024/02/01 11:39:34;;;;;;;15.63;8.63;;;;;;;;;;6290591;28;20055;-73
2024/02/01 11:42:36;;;;;;;14.48;8.15;;;;;;;;;;6285103;28;20147;-73
2024/02/01 11:45:38;;;;;;;14.50;9.68;;;;;;;;;;6303721;28;20461;-73
2024/02/01 11:48:42;;;;;;;13.70;8.18;;;;;;;;;;6286194;28;20056;-73
2024/02/01 11:52:13;;;;;;;11.82;5.78;;;;;;;;;;6294709;28;20050;-73
2024/02/01 11:55:15;;;;;;;12.95;9.40;;;;;;;;;;6264682;28;20036;-73
2024/02/01 11:58:18;;;;;;;19.40;11.25;;;;;;;;;;6273329;28;20056;-73
2024/02/01 12:01:20;;;;;;;18.30;10.02;;;;;;;;;;6272728;28;20052;-73
2024/02/01 12:04:24;;;;;;;14.90;7.20;;;;;;;;;;6310472;28;20790;-73
2024/02/01 12:07:26;;;;;;;12.32;7.47;;;;;;;;;;6268313;28;20112;-75
2024/02/01 12:10:30;;;;;;;18.10;7.70;;;;;;;;;;6272779;28;20055;-75
2024/02/01 12:13:33;;;;;;;12.63;8.13;;;;;;;;;;6313911;28;20044;-77
2024/02/01 12:16:36;;;;;;;12.32;7.55;;;;;;;;;;6305973;28;20036;-74
2024/02/01 12:19:39;;;;;;;17.90;9.02;;;;;;;;;;6301589;28;20048;-74
2024/02/01 12:22:48;;;;;;;15.88;9.15;;;;;;;;;;6300503;28;20110;-74
2024/02/01 12:25:50;;;;;;;20.42;8.73;;;;;;;;;;6285337;28;20078;-75
2024/02/01 12:28:54;;;;;;;18.80;11.05;;;;;;;;;;6271062;28;20063;-72
2024/02/01 12:31:59;;;;;;;13.07;9.10;;;;;;;;;;6264929;28;20063;-74
2024/02/01 12:35:08;;;;;;;16.23;9.52;;;;;;;;;;6267384;28;20040;-73
2024/02/01 12:38:11;;;;;;;10.00;6.10;;;;;;;;;;6296189;28;20044;-74
2024/02/01 12:41:14;;;;;;;14.50;8.32;;;;;;;;;;6294427;28;20048;-74
2024/02/01 12:44:16;;;;;;;15.85;12.45;;;;;;;;;;6290195;28;20437;-74
2024/02/01 12:47:21;;;;;;;18.25;9.52;;;;;;;;;;6302025;28;20044;-74
2024/02/01 12:50:23;;;;;;;15.80;7.55;;;;;;;;;;6306694;28;20044;-74
2024/02/01 12:53:25;;;;;;;15.82;8.48;;;;;;;;;;6278036;28;20113;-75
2024/02/01 12:56:27;;;;;;;12.13;6.40;;;;;;;;;;6289413;28;20043;-74
2024/02/01 12:59:36;;;;;;;12.75;6.80;;;;;;;;;;6302054;28;20052;-76
2024/02/01 13:02:39;;;;;;;15.80;8.95;;;;;;;;;;6299362;28;20113;-74
2024/02/01 13:05:45;;;;;;;14.38;8.70;;;;;;;;;;6270997;28;20051;-74
2024/02/01 13:08:52;;;;;;;13.70;8.57;;;;;;;;;;6284131;28;20458;-74
2024/02/01 13:11:58;;;;;;;15.02;6.78;;;;;;;;;;6286990;28;20058;-76
2024/02/01 13:15:01;;;;;;;13.60;8.73;;;;;;;;;;6265764;28;20040;-74
2024/02/01 13:18:11;;;;;;;18.73;9.73;;;;;;;;;;6287948;28;20553;-75
2024/02/01 13:21:16;;;;;;;16.45;10.63;;;;;;;;;;6302393;28;20185;-75
2024/02/01 13:24:18;;;;;;;11.52;6.20;;;;;;;;;;6270579;28;20079;-75
2024/02/01 13:27:20;;;;;;;17.65;12.10;;;;;;;;;;6276689;28;20441;-75
2024/02/01 13:30:23;;;;;;;17.88;8.25;;;;;;;;;;6287171;28;20040;-75
2024/02/01 13:33:27;;;;;;;19.58;9.13;;;;;;;;;;6268910;28;20063;-76
2024/02/01 13:36:34;;;;;;;15.00;8.77;;;;;;;;;;6287545;28;20155;-75
2024/02/01 13:39:37;;;;;;;14.68;9.50;;;;;;;;;;6283807;28;20048;-70
2024/02/01 13:42:39;;;;;;;20.45;9.57;;;;;;;;;;6307210;28;20133;-72
2024/02/01 13:45:42;;;;;;;19.80;9.48;;;;;;;;;;6259961;28;20048;-73
2024/02/01 13:48:44;;;;;;;18.50;10.35;;;;;;;;;;6283392;28;20728;-74
2024/02/01 13:51:50;;;;;;;15.75;9.60;;;;;;;;;;6310782;28;20052;-73
2024/02/01 13:54:53;;;;;;;15.60;10.30;;;;;;;;;;6255047;28;20048;-74
2024/02/01 13:57:56;;;;;;;15.95;11.18;;;;;;;;;;6281303;28;20525;-75
2024/02/01 14:00:58;;;;;;;14.85;8.18;;;;;;;;;;6284306;28;20109;-75
2024/02/01 14:04:04;;;;;;;13.80;8.02;;;;;;;;;;6297963;28;20505;-74
2024/02/01 14:07:06;;;;;;;12.75;8.02;;;;;;;;;;6281694;28;20044;-74
2024/02/01 14:10:11;;;;;;;17.92;12.98;;;;;;;;;;6310874;28;20055;-76
2024/02/01 14:13:13;;;;;;;10.00;6.22;;;;;;;;;;6271280;28;20171;-75
2024/02/01 14:16:15;;;;;;;8.52;7.15;;;;;;;;;;6282947;28;20110;-75
2024/02/01 14:19:18;;;;;;;19.10;9.48;;;;;;;;;;6285317;28;20059;-74
2024/02/01 14:22:23;;;;;;;12.00;7.78;;;;;;;;;;6244834;28;20112;-76
2024/02/01 14:25:28;;;;;;;10.85;7.07;;;;;;;;;;6279893;28;20097;-75
2024/02/01 14:28:32;;;;;;;16.77;11.00;;;;;;;;;;6307382;28;20055;-74
2024/02/01 14:31:39;;;;;;;24.98;17.60;;;;;;;;;;6288380;28;20089;-75
2024/02/01 14:34:45;;;;;;;12.63;8.70;;;;;;;;;;6271863;28;20060;-74
2024/02/01 14:37:47;;;;;;;12.07;7.30;;;;;;;;;;6274382;28;20572;-75
2024/02/01 14:40:50;;;;;;;16.63;10.57;;;;;;;;;;6282126;28;20056;-74
2024/02/01 14:43:52;;;;;;;14.50;8.45;;;;;;;;;;6278057;28;20054;-75
2024/02/01 14:46:54;;;;;;;14.02;8.73;;;;;;;;;;6284793;28;20032;-75
2024/02/01 14:49:57;;;;;;;28.33;19.45;;;;;;;;;;6305898;28;20055;-75
2024/02/01 14:53:00;;;;;;;16.83;9.82;;;;;;;;;;6309356;28;20039;-75
2024/02/01 14:56:02;;;;;;;19.63;13.07;;;;;;;;;;6277178;28;20048;-75
2024/02/01 14:59:06;;;;;;;22.98;13.23;;;;;;;;;;6300696;28;20052;-75
2024/02/01 15:02:09;;;;;;;18.10;13.68;;;;;;;;;;6269390;28;20055;-75
2024/02/01 15:05:13;;;;;;;17.90;11.50;;;;;;;;;;6296689;28;20134;-75
2024/02/01 15:08:16;;;;;;;19.63;10.57;;;;;;;;;;6282971;28;20101;-75
2024/02/01 15:11:18;;;;;;;25.13;13.90;;;;;;;;;;6284906;28;20052;-74
2024/02/01 15:14:20;;;;;;;19.45;11.73;;;;;;;;;;6285347;28;20055;-74
2024/02/01 15:17:23;;;;;;;15.45;9.73;;;;;;;;;;6306847;28;20105;-75
2024/02/01 15:20:37;;;;;;;20.58;13.00;;;;;;;;;;6285914;28;20080;-75
2024/02/01 15:23:41;;;;;;;21.08;11.50;;;;;;;;;;6291730;28;20054;-75
2024/02/01 15:26:44;;;;;;;22.10;11.65;;;;;;;;;;6267254;28;20808;-75
2024/02/01 15:29:46;;;;;;;18.00;12.18;;;;;;;;;;6265867;28;20048;-74
2024/02/01 15:32:50;;;;;;;20.50;14.32;;;;;;;;;;6304121;28;20087;-74
2024/02/01 15:35:53;;;;;;;28.48;13.60;;;;;;;;;;6283853;28;20109;-73
2024/02/01 15:38:55;;;;;;;44.83;21.98;;;;;;;;;;6299129;28;20945;-75
2024/02/01 15:42:00;;;;;;;39.50;19.75;;;;;;;;;;6276329;28;20599;-73
2024/02/01 15:45:06;;;;;;;33.97;18.90;;;;;;;;;;6302189;28;20052;-74
2024/02/01 15:48:09;;;;;;;28.17;17.08;;;;;;;;;;6293132;28;20470;-74
2024/02/01 15:51:15;;;;;;;30.35;17.00;;;;;;;;;;6302754;28;20568;-73
2024/02/01 15:54:17;;;;;;;;;;;;;;;;;;6303625;28;20838;-74
2024/02/01 15:57:19;;;;;;;27.55;15.63;;;;;;;;;;6286727;28;19924;-74
2024/02/01 16:00:22;;;;;;;33.22;17.23;;;;;;;;;;6262967;28;20049;-75
2024/02/01 16:03:26;;;;;;;25.75;15.80;;;;;;;;;;6284260;28;20097;-74
2024/02/01 16:06:28;;;;;;;71.15;36.53;;;;;;;;;;6300678;28;20485;-74
2024/02/01 16:09:31;;;;;;;40.70;19.70;;;;;;;;;;6280094;28;20055;-75
2024/02/01 16:12:33;;;;;;;69.00;37.13;;;;;;;;;;6288232;28;20040;-75
2024/02/01 16:15:36;;;;;;;64.45;33.10;;;;;;;;;;6251982;28;20048;-75
2024/02/01 16:18:38;;;;;;;35.72;16.88;;;;;;;;;;6289853;28;20047;-75
2024/02/01 16:21:46;;;;;;;29.35;13.40;;;;;;;;;;6287195;28;20066;-75
2024/02/01 16:24:58;;;;;;;25.70;14.52;;;;;;;;;;6286781;28;20052;-76
2024/02/01 16:28:06;;;;;;;43.17;21.38;;;;;;;;;;6274849;28;20076;-75
2024/02/01 16:31:10;;;;;;;34.53;19.08;;;;;;;;;;6284315;28;20055;-75
2024/02/01 16:34:15;;;;;;;31.42;13.68;;;;;;;;;;6273874;28;20048;-75
2024/02/01 16:37:17;;;;;;;25.70;13.00;;;;;;;;;;6271625;28;20039;-75
2024/02/01 16:40:27;;;;;;;28.05;13.95;;;;;;;;;;6281173;28;20056;-75
2024/02/01 16:43:37;;;;;;;31.38;13.98;;;;;;;;;;6281293;28;20052;-75
2024/02/01 16:46:46;;;;;;;31.58;14.73;;;;;;;;;;6270574;28;20040;-75
2024/02/01 16:50:10;;;;;;;44.20;24.17;;;;;;;;;;6282769;28;20044;-75
2024/02/01 16:53:28;;;;;;;39.47;21.67;;;;;;;;;;6271898;28;20055;-73
2024/02/01 16:56:30;;;;;;;;;;;;;;;;;;6297714;28;20388;-73
2024/02/01 16:59:34;;;;;;;30.45;15.50;;;;;;;;;;6261554;28;19919;-73
2024/02/01 17:02:42;;;;;;;24.13;11.35;;;;;;;;;;6264394;28;20061;-74
2024/02/01 17:05:45;;;;;;;30.50;13.27;;;;;;;;;;6294958;28;20052;-73
2024/02/01 17:08:53;;;;;;;28.38;14.27;;;;;;;;;;6259642;28;20044;-73
2024/02/01 17:11:57;;;;;;;41.20;20.45;;;;;;;;;;6280243;28;20088;-73
2024/02/01 17:15:01;;;;;;;31.90;16.25;;;;;;;;;;6271047;28;20051;-73
2024/02/01 17:18:03;;;;;;;24.63;14.30;;;;;;;;;;6285688;28;20051;-74
2024/02/01 17:21:06;;;;;;;67.22;30.27;;;;;;;;;;6299111;28;20040;-75
2024/02/01 17:24:09;;;;;;;21.25;10.05;;;;;;;;;;6292509;28;20508;-77
2024/02/01 17:27:13;;;;;;;19.55;10.00;;;;;;;;;;6308248;28;20066;-78
2024/02/01 17:30:43;;;;;;;26.83;13.77;;;;;;;;;;6294183;28;20047;-75
2024/02/01 17:33:46;;;;;;;81.53;39.42;;;;;;;;;;6286525;28;20043;-74
2024/02/01 17:36:51;;;;;;;36.75;19.35;;;;;;;;;;6295147;28;20051;-74
2024/02/01 17:39:54;;;;;;;54.22;32.40;;;;;;;;;;6269237;28;20064;-75
2024/02/01 17:42:56;;;;;;;50.60;28.05;;;;;;;;;;6285735;28;20048;-75
2024/02/01 17:46:00;;;;;;;30.13;16.80;;;;;;;;;;6290242;28;20071;-75
2024/02/01 17:49:02;;;;;;;17.08;8.55;;;;;;;;;;6284159;28;20480;-74
2024/02/01 17:52:26;;;;;;;19.02;9.50;;;;;;;;;;6280612;28;20045;-73
2024/02/01 17:55:55;;;;;;;27.65;17.00;;;;;;;;;;6310023;28;20036;-76
2024/02/01 17:58:57;;;;;;;19.13;11.43;;;;;;;;;;6265904;28;20040;-76
2024/02/01 18:02:00;;;;;;;14.20;7.63;;;;;;;;;;6281480;28;20155;-76
2024/02/01 18:05:03;;;;;;;14.93;8.63;;;;;;;;;;6263303;28;20051;-76
2024/02/01 18:08:07;;;;;;;20.83;9.60;;;;;;;;;;6262718;28;20048;-76
2024/02/01 18:11:11;;;;;;;12.95;6.97;;;;;;;;;;6278817;28;20057;-75
2024/02/01 18:14:14;;;;;;;28.75;18.35;;;;;;;;;;6269482;28;20116;-76
2024/02/01 18:17:22;;;;;;;23.08;13.15;;;;;;;;;;6276506;28;20032;-77
2024/02/01 18:20:25;;;;;;;17.10;9.73;;;;;;;;;;6277133;28;20052;-75
2024/02/01 18:23:30;;;;;;;18.50;12.07;;;;;;;;;;6250370;28;20692;-74
2024/02/01 18:26:33;;;;;;;18.63;9.27;;;;;;;;;;6296326;28;20054;-74
2024/02/01 18:29:45;;;;;;;15.50;7.63;;;;;;;;;;6270539;28;20610;-73
2024/02/01 18:32:48;;;;;;;15.60;8.45;;;;;;;;;;6286019;28;20123;-74
2024/02/01 18:35:53;;;;;;;27.15;14.43;;;;;;;;;;6292484;28;20070;-75
2024/02/01 18:39:04;;;;;;;62.50;29.27;;;;;;;;;;6290821;28;20047;-76
2024/02/01 18:42:24;;;;;;;66.00;30.92;;;;;;;;;;6268311;28;20067;-75
2024/02/01 18:45:44;;;;;;;35.05;17.17;;;;;;;;;;6311940;28;20060;-75
2024/02/01 18:48:47;;;;;;;28.88;14.82;;;;;;;;;;6266036;28;20044;-74
2024/02/01 18:51:52;;;;;;;26.90;17.23;;;;;;;;;;6298851;28;20489;-74